sensor_id;sensor_type;location;lat;lon;timestamp;pressure;altitude;pressure_sealevel;temperature
44429;BMP180;30134;47.866;-4.222;2023-04-30T00:01:53;101709.00;;;22.40
44429;BMP180;30134;47.866;-4.222;2023-04-30T00:04:19;101709.00;;;22.30
44429;BMP180;30134;47.866;-4.222;2023-04-30T00:06:45;101709.00;;;22.30
44429;BMP180;30134;47.866;-4.222;2023-04-30T00:09:11;101709.00;;;22.30
44429;BMP180;30134;47.866;-4.222;2023-04-30T00:11:37;101704.00;;;22.30
44429;BMP180;30134;47.866;-4.222;2023-04-30T00:14:03;101709.00;;;22.30
44429;BMP180;30134;47.866;-4.222;2023-04-30T00:16:29;101702.00;;;22.20
44429;BMP180;30134;47.866;-4.222;2023-04-30T00:19:03;101709.00;;;22.30
44429;BMP180;30134;47.866;-4.222;2023-04-30T00:21:43;101700.00;;;22.10
44429;BMP180;30134;47.866;-4.222;2023-04-30T00:24:09;101702.00;;;21.90
44429;BMP180;30134;47.866;-4.222;2023-04-30T00:26:35;101702.00;;;22.00
44429;BMP180;30134;47.866;-4.222;2023-04-30T00:29:01;101698.00;;;22.10
44429;BMP180;30134;47.866;-4.222;2023-04-30T00:31:27;101687.00;;;22.10
44429;BMP180;30134;47.866;-4.222;2023-04-30T00:33:53;101694.00;;;22.10
44429;BMP180;30134;47.866;-4.222;2023-04-30T00:36:19;101698.00;;;22.10
44429;BMP180;30134;47.866;-4.222;2023-04-30T00:38:45;101694.00;;;22.10
44429;BMP180;30134;47.866;-4.222;2023-04-30T00:41:12;101688.00;;;22.10
44429;BMP180;30134;47.866;-4.222;2023-04-30T00:43:38;101692.00;;;22.10
44429;BMP180;30134;47.866;-4.222;2023-04-30T00:46:04;101688.00;;;22.00
44429;BMP180;30134;47.866;-4.222;2023-04-30T00:48:31;101688.00;;;22.10
44429;BMP180;30134;47.866;-4.222;2023-04-30T00:50:57;101688.00;;;22.00
44429;BMP180;30134;47.866;-4.222;2023-04-30T00:53:23;101689.00;;;22.00
44429;BMP180;30134;47.866;-4.222;2023-04-30T00:55:50;101684.00;;;22.00
44429;BMP180;30134;47.866;-4.222;2023-04-30T00:58:16;101686.00;;;22.00
44429;BMP180;30134;47.866;-4.222;2023-04-30T01:00:42;101679.00;;;22.00
44429;BMP180;30134;47.866;-4.222;2023-04-30T01:03:13;101690.00;;;22.00
44429;BMP180;30134;47.866;-4.222;2023-04-30T01:05:39;101689.00;;;22.00
44429;BMP180;30134;47.866;-4.222;2023-04-30T01:08:05;101691.00;;;21.90
44429;BMP180;30134;47.866;-4.222;2023-04-30T01:16:24;101692.00;;;21.90
44429;BMP180;30134;47.866;-4.222;2023-04-30T01:19:04;101685.00;;;21.90
44429;BMP180;30134;47.866;-4.222;2023-04-30T01:21:35;101681.00;;;21.90
44429;BMP180;30134;47.866;-4.222;2023-04-30T01:30:14;101667.00;;;21.80
44429;BMP180;30134;47.866;-4.222;2023-04-30T01:32:41;101664.00;;;21.80
44429;BMP180;30134;47.866;-4.222;2023-04-30T01:35:08;101667.00;;;21.90
44429;BMP180;30134;47.866;-4.222;2023-04-30T01:38:01;101666.00;;;21.80
44429;BMP180;30134;47.866;-4.222;2023-04-30T01:46:13;101657.00;;;21.80
44429;BMP180;30134;47.866;-4.222;2023-04-30T01:49:11;101657.00;;;21.80
44429;BMP180;30134;47.866;-4.222;2023-04-30T01:51:42;101652.00;;;21.70
44429;BMP180;30134;47.866;-4.222;2023-04-30T01:54:22;101648.00;;;21.80
44429;BMP180;30134;47.866;-4.222;2023-04-30T01:57:06;101651.00;;;21.80
44429;BMP180;30134;47.866;-4.222;2023-04-30T01:59:35;101649.00;;;21.80
44429;BMP180;30134;47.866;-4.222;2023-04-30T02:02:03;101654.00;;;21.80
44429;BMP180;30134;47.866;-4.222;2023-04-30T02:04:29;101654.00;;;21.80
44429;BMP180;30134;47.866;-4.222;2023-04-30T02:06:55;101653.00;;;21.70
44429;BMP180;30134;47.866;-4.222;2023-04-30T02:09:23;101651.00;;;21.70
44429;BMP180;30134;47.866;-4.222;2023-04-30T02:11:50;101649.00;;;21.70
44429;BMP180;30134;47.866;-4.222;2023-04-30T02:14:16;101654.00;;;21.70
44429;BMP180;30134;47.866;-4.222;2023-04-30T02:16:42;101655.00;;;21.70
44429;BMP180;30134;47.866;-4.222;2023-04-30T02:19:08;101653.00;;;21.70
44429;BMP180;30134;47.866;-4.222;2023-04-30T02:21:34;101650.00;;;21.70
44429;BMP180;30134;47.866;-4.222;2023-04-30T02:24:00;101654.00;;;21.70
44429;BMP180;30134;47.866;-4.222;2023-04-30T02:26:26;101656.00;;;21.70
44429;BMP180;30134;47.866;-4.222;2023-04-30T02:28:52;101650.00;;;21.70
44429;BMP180;30134;47.866;-4.222;2023-04-30T02:31:20;101654.00;;;21.70
44429;BMP180;30134;47.866;-4.222;2023-04-30T02:33:47;101649.00;;;21.70
44429;BMP180;30134;47.866;-4.222;2023-04-30T02:36:13;101651.00;;;21.70
44429;BMP180;30134;47.866;-4.222;2023-04-30T02:38:39;101651.00;;;21.70
44429;BMP180;30134;47.866;-4.222;2023-04-30T02:41:05;101647.00;;;21.70
44429;BMP180;30134;47.866;-4.222;2023-04-30T02:43:31;101662.00;;;21.70
44429;BMP180;30134;47.866;-4.222;2023-04-30T02:45:57;101656.00;;;21.70
44429;BMP180;30134;47.866;-4.222;2023-04-30T02:48:23;101652.00;;;21.70
44429;BMP180;30134;47.866;-4.222;2023-04-30T02:50:49;101648.00;;;21.70
44429;BMP180;30134;47.866;-4.222;2023-04-30T02:53:15;101648.00;;;21.60
44429;BMP180;30134;47.866;-4.222;2023-04-30T02:55:41;101645.00;;;21.70
44429;BMP180;30134;47.866;-4.222;2023-04-30T02:58:07;101650.00;;;21.70
44429;BMP180;30134;47.866;-4.222;2023-04-30T03:00:33;101651.00;;;21.70
44429;BMP180;30134;47.866;-4.222;2023-04-30T03:02:59;101648.00;;;21.70
44429;BMP180;30134;47.866;-4.222;2023-04-30T03:05:25;101648.00;;;21.70
44429;BMP180;30134;47.866;-4.222;2023-04-30T03:07:51;101639.00;;;21.60
44429;BMP180;30134;47.866;-4.222;2023-04-30T03:10:20;101647.00;;;21.70
44429;BMP180;30134;47.866;-4.222;2023-04-30T03:12:46;101649.00;;;21.70
44429;BMP180;30134;47.866;-4.222;2023-04-30T03:15:12;101640.00;;;21.70
44429;BMP180;30134;47.866;-4.222;2023-04-30T03:17:38;101642.00;;;21.60
44429;BMP180;30134;47.866;-4.222;2023-04-30T03:20:05;101646.00;;;21.60
44429;BMP180;30134;47.866;-4.222;2023-04-30T03:22:31;101642.00;;;21.60
44429;BMP180;30134;47.866;-4.222;2023-04-30T03:24:57;101646.00;;;21.60
44429;BMP180;30134;47.866;-4.222;2023-04-30T03:27:24;101642.00;;;21.60
44429;BMP180;30134;47.866;-4.222;2023-04-30T03:29:50;101647.00;;;21.70
44429;BMP180;30134;47.866;-4.222;2023-04-30T03:32:16;101646.00;;;21.70
44429;BMP180;30134;47.866;-4.222;2023-04-30T03:34:45;101642.00;;;21.70
44429;BMP180;30134;47.866;-4.222;2023-04-30T03:37:11;101644.00;;;21.60
44429;BMP180;30134;47.866;-4.222;2023-04-30T03:39:37;101647.00;;;21.60
44429;BMP180;30134;47.866;-4.222;2023-04-30T03:42:06;101645.00;;;21.60
44429;BMP180;30134;47.866;-4.222;2023-04-30T03:44:35;101645.00;;;21.60
44429;BMP180;30134;47.866;-4.222;2023-04-30T03:47:03;101649.00;;;21.60
44429;BMP180;30134;47.866;-4.222;2023-04-30T03:49:29;101641.00;;;21.60
44429;BMP180;30134;47.866;-4.222;2023-04-30T03:51:56;101653.00;;;21.70
44429;BMP180;30134;47.866;-4.222;2023-04-30T03:54:22;101643.00;;;21.60
44429;BMP180;30134;47.866;-4.222;2023-04-30T03:56:48;101643.00;;;21.60
44429;BMP180;30134;47.866;-4.222;2023-04-30T03:59:14;101632.00;;;21.60
44429;BMP180;30134;47.866;-4.222;2023-04-30T04:01:40;101638.00;;;21.60
44429;BMP180;30134;47.866;-4.222;2023-04-30T04:04:07;101644.00;;;21.60
44429;BMP180;30134;47.866;-4.222;2023-04-30T04:06:33;101647.00;;;21.60
44429;BMP180;30134;47.866;-4.222;2023-04-30T04:08:59;101650.00;;;21.60
44429;BMP180;30134;47.866;-4.222;2023-04-30T04:11:25;101643.00;;;21.60
44429;BMP180;30134;47.866;-4.222;2023-04-30T04:13:51;101653.00;;;21.60
44429;BMP180;30134;47.866;-4.222;2023-04-30T04:16:17;101657.00;;;21.60
44429;BMP180;30134;47.866;-4.222;2023-04-30T04:18:43;101653.00;;;21.60
44429;BMP180;30134;47.866;-4.222;2023-04-30T04:21:09;101652.00;;;21.60
44429;BMP180;30134;47.866;-4.222;2023-04-30T04:23:35;101652.00;;;21.60
44429;BMP180;30134;47.866;-4.222;2023-04-30T04:26:01;101652.00;;;21.60
44429;BMP180;30134;47.866;-4.222;2023-04-30T04:28:27;101654.00;;;21.60
44429;BMP180;30134;47.866;-4.222;2023-04-30T04:30:54;101660.00;;;21.60
44429;BMP180;30134;47.866;-4.222;2023-04-30T04:33:20;101658.00;;;21.60
44429;BMP180;30134;47.866;-4.222;2023-04-30T04:35:46;101660.00;;;21.60
44429;BMP180;30134;47.866;-4.222;2023-04-30T04:38:12;101659.00;;;21.60
44429;BMP180;30134;47.866;-4.222;2023-04-30T04:40:38;101660.00;;;21.60
44429;BMP180;30134;47.866;-4.222;2023-04-30T04:43:04;101652.00;;;21.60
44429;BMP180;30134;47.866;-4.222;2023-04-30T04:45:31;101658.00;;;21.60
44429;BMP180;30134;47.866;-4.222;2023-04-30T04:47:58;101656.00;;;21.60
44429;BMP180;30134;47.866;-4.222;2023-04-30T04:50:24;101656.00;;;21.60
44429;BMP180;30134;47.866;-4.222;2023-04-30T04:52:50;101651.00;;;21.60
44429;BMP180;30134;47.866;-4.222;2023-04-30T04:55:16;101650.00;;;21.60
44429;BMP180;30134;47.866;-4.222;2023-04-30T04:57:43;101653.00;;;21.60
44429;BMP180;30134;47.866;-4.222;2023-04-30T05:00:10;101663.00;;;21.60
44429;BMP180;30134;47.866;-4.222;2023-04-30T05:02:37;101653.00;;;21.60
44429;BMP180;30134;47.866;-4.222;2023-04-30T05:05:03;101653.00;;;21.60
44429;BMP180;30134;47.866;-4.222;2023-04-30T05:07:29;101658.00;;;21.60
44429;BMP180;30134;47.866;-4.222;2023-04-30T05:09:55;101655.00;;;21.60
44429;BMP180;30134;47.866;-4.222;2023-04-30T05:12:21;101650.00;;;21.50
44429;BMP180;30134;47.866;-4.222;2023-04-30T05:14:47;101646.00;;;21.60
44429;BMP180;30134;47.866;-4.222;2023-04-30T05:17:15;101651.00;;;21.60
44429;BMP180;30134;47.866;-4.222;2023-04-30T05:19:41;101651.00;;;21.60
44429;BMP180;30134;47.866;-4.222;2023-04-30T05:22:07;101647.00;;;21.50
44429;BMP180;30134;47.866;-4.222;2023-04-30T05:24:34;101648.00;;;21.60
44429;BMP180;30134;47.866;-4.222;2023-04-30T05:27:00;101644.00;;;21.60
44429;BMP180;30134;47.866;-4.222;2023-04-30T05:29:27;101641.00;;;21.60
44429;BMP180;30134;47.866;-4.222;2023-04-30T05:31:53;101642.00;;;21.50
44429;BMP180;30134;47.866;-4.222;2023-04-30T05:34:19;101643.00;;;21.60
44429;BMP180;30134;47.866;-4.222;2023-04-30T05:36:46;101647.00;;;21.50
44429;BMP180;30134;47.866;-4.222;2023-04-30T05:39:12;101651.00;;;21.50
44429;BMP180;30134;47.866;-4.222;2023-04-30T05:41:37;101645.00;;;21.50
44429;BMP180;30134;47.866;-4.222;2023-04-30T05:44:04;101658.00;;;21.50
44429;BMP180;30134;47.866;-4.222;2023-04-30T05:46:31;101658.00;;;21.50
44429;BMP180;30134;47.866;-4.222;2023-04-30T05:48:57;101657.00;;;21.50
44429;BMP180;30134;47.866;-4.222;2023-04-30T05:51:23;101658.00;;;21.50
44429;BMP180;30134;47.866;-4.222;2023-04-30T05:53:49;101661.00;;;21.50
44429;BMP180;30134;47.866;-4.222;2023-04-30T05:56:15;101654.00;;;21.50
44429;BMP180;30134;47.866;-4.222;2023-04-30T05:58:41;101660.00;;;21.50
44429;BMP180;30134;47.866;-4.222;2023-04-30T06:01:07;101664.00;;;21.50
44429;BMP180;30134;47.866;-4.222;2023-04-30T06:03:36;101665.00;;;21.60
44429;BMP180;30134;47.866;-4.222;2023-04-30T06:06:03;101666.00;;;21.60
44429;BMP180;30134;47.866;-4.222;2023-04-30T06:08:29;101660.00;;;21.50
44429;BMP180;30134;47.866;-4.222;2023-04-30T06:10:55;101659.00;;;21.50
44429;BMP180;30134;47.866;-4.222;2023-04-30T06:13:22;101665.00;;;21.50
44429;BMP180;30134;47.866;-4.222;2023-04-30T06:15:48;101672.00;;;21.50
44429;BMP180;30134;47.866;-4.222;2023-04-30T06:18:14;101679.00;;;21.50
44429;BMP180;30134;47.866;-4.222;2023-04-30T06:20:40;101671.00;;;21.50
44429;BMP180;30134;47.866;-4.222;2023-04-30T06:23:07;101674.00;;;21.50
44429;BMP180;30134;47.866;-4.222;2023-04-30T06:25:33;101679.00;;;21.50
44429;BMP180;30134;47.866;-4.222;2023-04-30T06:27:59;101676.00;;;21.50
44429;BMP180;30134;47.866;-4.222;2023-04-30T06:30:26;101676.00;;;21.50
44429;BMP180;30134;47.866;-4.222;2023-04-30T06:32:52;101685.00;;;21.50
44429;BMP180;30134;47.866;-4.222;2023-04-30T06:35:18;101684.00;;;21.50
44429;BMP180;30134;47.866;-4.222;2023-04-30T06:37:44;101689.00;;;21.50
44429;BMP180;30134;47.866;-4.222;2023-04-30T06:40:10;101695.00;;;21.50
44429;BMP180;30134;47.866;-4.222;2023-04-30T06:42:36;101703.00;;;21.50
44429;BMP180;30134;47.866;-4.222;2023-04-30T06:45:03;101699.00;;;21.50
44429;BMP180;30134;47.866;-4.222;2023-04-30T06:47:31;101705.00;;;21.40
44429;BMP180;30134;47.866;-4.222;2023-04-30T06:50:03;101705.00;;;21.50
44429;BMP180;30134;47.866;-4.222;2023-04-30T06:52:30;101703.00;;;21.50
44429;BMP180;30134;47.866;-4.222;2023-04-30T06:54:56;101704.00;;;21.50
44429;BMP180;30134;47.866;-4.222;2023-04-30T06:57:22;101700.00;;;21.50
44429;BMP180;30134;47.866;-4.222;2023-04-30T06:59:49;101703.00;;;21.50
44429;BMP180;30134;47.866;-4.222;2023-04-30T07:02:15;101706.00;;;21.50
44429;BMP180;30134;47.866;-4.222;2023-04-30T07:04:41;101712.00;;;21.50
44429;BMP180;30134;47.866;-4.222;2023-04-30T07:07:07;101710.00;;;21.50
44429;BMP180;30134;47.866;-4.222;2023-04-30T07:09:33;101716.00;;;21.50
44429;BMP180;30134;47.866;-4.222;2023-04-30T07:11:59;101718.00;;;21.50
44429;BMP180;30134;47.866;-4.222;2023-04-30T07:14:25;101721.00;;;21.50
44429;BMP180;30134;47.866;-4.222;2023-04-30T07:16:52;101715.00;;;21.40
44429;BMP180;30134;47.866;-4.222;2023-04-30T07:19:18;101719.00;;;21.40
44429;BMP180;30134;47.866;-4.222;2023-04-30T07:21:45;101729.00;;;21.40
44429;BMP180;30134;47.866;-4.222;2023-04-30T07:24:17;101731.00;;;21.50
44429;BMP180;30134;47.866;-4.222;2023-04-30T07:26:43;101729.00;;;21.50
44429;BMP180;30134;47.866;-4.222;2023-04-30T07:29:09;101728.00;;;21.50
44429;BMP180;30134;47.866;-4.222;2023-04-30T07:31:35;101729.00;;;21.50
44429;BMP180;30134;47.866;-4.222;2023-04-30T07:34:02;101733.00;;;21.40
44429;BMP180;30134;47.866;-4.222;2023-04-30T07:36:28;101737.00;;;21.40
44429;BMP180;30134;47.866;-4.222;2023-04-30T07:38:54;101734.00;;;21.40
44429;BMP180;30134;47.866;-4.222;2023-04-30T07:41:20;101740.00;;;21.40
44429;BMP180;30134;47.866;-4.222;2023-04-30T07:43:46;101736.00;;;21.40
44429;BMP180;30134;47.866;-4.222;2023-04-30T07:46:12;101738.00;;;21.40
44429;BMP180;30134;47.866;-4.222;2023-04-30T07:48:38;101735.00;;;21.40
44429;BMP180;30134;47.866;-4.222;2023-04-30T07:51:04;101738.00;;;21.40
44429;BMP180;30134;47.866;-4.222;2023-04-30T07:53:30;101739.00;;;21.40
44429;BMP180;30134;47.866;-4.222;2023-04-30T07:55:56;101751.00;;;21.40
44429;BMP180;30134;47.866;-4.222;2023-04-30T07:58:22;101749.00;;;21.40
44429;BMP180;30134;47.866;-4.222;2023-04-30T08:00:55;101751.00;;;21.40
44429;BMP180;30134;47.866;-4.222;2023-04-30T08:03:21;101750.00;;;21.50
44429;BMP180;30134;47.866;-4.222;2023-04-30T08:05:47;101756.00;;;21.40
44429;BMP180;30134;47.866;-4.222;2023-04-30T08:08:13;101751.00;;;21.40
44429;BMP180;30134;47.866;-4.222;2023-04-30T08:10:39;101752.00;;;21.40
44429;BMP180;30134;47.866;-4.222;2023-04-30T08:13:06;101747.00;;;21.40
44429;BMP180;30134;47.866;-4.222;2023-04-30T08:15:35;101743.00;;;21.80
44429;BMP180;30134;47.866;-4.222;2023-04-30T08:18:03;101747.00;;;22.10
44429;BMP180;30134;47.866;-4.222;2023-04-30T08:20:31;101747.00;;;21.80
44429;BMP180;30134;47.866;-4.222;2023-04-30T08:23:00;101745.00;;;21.50
44429;BMP180;30134;47.866;-4.222;2023-04-30T08:25:26;101743.00;;;21.50
44429;BMP180;30134;47.866;-4.222;2023-04-30T08:27:52;101747.00;;;21.50
44429;BMP180;30134;47.866;-4.222;2023-04-30T08:30:18;101739.00;;;21.50
44429;BMP180;30134;47.866;-4.222;2023-04-30T08:32:44;101740.00;;;21.50
44429;BMP180;30134;47.866;-4.222;2023-04-30T08:35:11;101740.00;;;21.50
44429;BMP180;30134;47.866;-4.222;2023-04-30T08:37:37;101735.00;;;21.50
44429;BMP180;30134;47.866;-4.222;2023-04-30T08:40:03;101736.00;;;21.50
44429;BMP180;30134;47.866;-4.222;2023-04-30T08:42:36;101731.00;;;21.50
44429;BMP180;30134;47.866;-4.222;2023-04-30T08:45:08;101727.00;;;21.50
44429;BMP180;30134;47.866;-4.222;2023-04-30T08:47:36;101730.00;;;21.40
44429;BMP180;30134;47.866;-4.222;2023-04-30T08:50:05;101723.00;;;21.40
44429;BMP180;30134;47.866;-4.222;2023-04-30T08:52:34;101723.00;;;21.50
44429;BMP180;30134;47.866;-4.222;2023-04-30T08:55:01;101729.00;;;21.50
44429;BMP180;30134;47.866;-4.222;2023-04-30T08:57:30;101722.00;;;21.40
44429;BMP180;30134;47.866;-4.222;2023-04-30T08:59:56;101728.00;;;21.50
44429;BMP180;30134;47.866;-4.222;2023-04-30T09:02:22;101729.00;;;21.50
44429;BMP180;30134;47.866;-4.222;2023-04-30T09:04:49;101723.00;;;21.50
44429;BMP180;30134;47.866;-4.222;2023-04-30T09:07:17;101724.00;;;21.50
44429;BMP180;30134;47.866;-4.222;2023-04-30T09:09:44;101746.00;;;21.50
44429;BMP180;30134;47.866;-4.222;2023-04-30T09:12:17;101751.00;;;21.50
44429;BMP180;30134;47.866;-4.222;2023-04-30T09:15:04;101754.00;;;21.50
44429;BMP180;30134;47.866;-4.222;2023-04-30T09:17:31;101751.00;;;21.50
44429;BMP180;30134;47.866;-4.222;2023-04-30T09:20:12;101749.00;;;21.50
44429;BMP180;30134;47.866;-4.222;2023-04-30T09:22:40;101754.00;;;21.50
44429;BMP180;30134;47.866;-4.222;2023-04-30T09:25:08;101752.00;;;21.50
44429;BMP180;30134;47.866;-4.222;2023-04-30T09:27:34;101755.00;;;21.50
44429;BMP180;30134;47.866;-4.222;2023-04-30T09:30:00;101755.00;;;21.60
44429;BMP180;30134;47.866;-4.222;2023-04-30T09:32:26;101753.00;;;21.60
44429;BMP180;30134;47.866;-4.222;2023-04-30T09:34:53;101750.00;;;21.60
44429;BMP180;30134;47.866;-4.222;2023-04-30T09:37:19;101752.00;;;21.50
44429;BMP180;30134;47.866;-4.222;2023-04-30T09:39:53;101751.00;;;21.50
44429;BMP180;30134;47.866;-4.222;2023-04-30T09:42:19;101763.00;;;21.60
44429;BMP180;30134;47.866;-4.222;2023-04-30T09:44:47;101762.00;;;21.60
44429;BMP180;30134;47.866;-4.222;2023-04-30T09:47:18;101759.00;;;21.60
44429;BMP180;30134;47.866;-4.222;2023-04-30T09:49:49;101764.00;;;21.60
44429;BMP180;30134;47.866;-4.222;2023-04-30T09:52:19;101768.00;;;21.50
44429;BMP180;30134;47.866;-4.222;2023-04-30T09:54:46;101766.00;;;21.50
44429;BMP180;30134;47.866;-4.222;2023-04-30T09:57:14;101772.00;;;21.60
44429;BMP180;30134;47.866;-4.222;2023-04-30T09:59:46;101763.00;;;21.60
44429;BMP180;30134;47.866;-4.222;2023-04-30T10:02:16;101763.00;;;21.60
44429;BMP180;30134;47.866;-4.222;2023-04-30T10:04:46;101756.00;;;21.60
44429;BMP180;30134;47.866;-4.222;2023-04-30T10:07:19;101760.00;;;21.60
44429;BMP180;30134;47.866;-4.222;2023-04-30T10:10:08;101765.00;;;21.60
44429;BMP180;30134;47.866;-4.222;2023-04-30T10:12:55;101763.00;;;21.90
44429;BMP180;30134;47.866;-4.222;2023-04-30T10:15:28;101758.00;;;22.10
44429;BMP180;30134;47.866;-4.222;2023-04-30T10:18:10;101765.00;;;22.30
44429;BMP180;30134;47.866;-4.222;2023-04-30T10:20:38;101763.00;;;22.50
44429;BMP180;30134;47.866;-4.222;2023-04-30T10:23:04;101765.00;;;22.50
44429;BMP180;30134;47.866;-4.222;2023-04-30T10:25:31;101771.00;;;22.60
44429;BMP180;30134;47.866;-4.222;2023-04-30T10:27:58;101775.00;;;22.60
44429;BMP180;30134;47.866;-4.222;2023-04-30T10:30:25;101772.00;;;21.90
44429;BMP180;30134;47.866;-4.222;2023-04-30T10:35:29;101774.00;;;21.70
44429;BMP180;30134;47.866;-4.222;2023-04-30T10:38:22;101777.00;;;21.70
44429;BMP180;30134;47.866;-4.222;2023-04-30T10:40:53;101777.00;;;21.70
44429;BMP180;30134;47.866;-4.222;2023-04-30T10:43:19;101772.00;;;21.70
44429;BMP180;30134;47.866;-4.222;2023-04-30T10:45:49;101775.00;;;21.70
44429;BMP180;30134;47.866;-4.222;2023-04-30T10:48:16;101780.00;;;21.70
44429;BMP180;30134;47.866;-4.222;2023-04-30T10:51:00;101776.00;;;21.60
44429;BMP180;30134;47.866;-4.222;2023-04-30T10:53:30;101769.00;;;21.50
44429;BMP180;30134;47.866;-4.222;2023-04-30T10:56:03;101762.00;;;21.60
44429;BMP180;30134;47.866;-4.222;2023-04-30T10:58:35;101769.00;;;21.50
44429;BMP180;30134;47.866;-4.222;2023-04-30T11:01:14;101759.00;;;21.30
44429;BMP180;30134;47.866;-4.222;2023-04-30T11:04:03;101755.00;;;21.40
44429;BMP180;30134;47.866;-4.222;2023-04-30T11:07:00;101754.00;;;21.40
44429;BMP180;30134;47.866;-4.222;2023-04-30T11:09:41;101760.00;;;21.30
44429;BMP180;30134;47.866;-4.222;2023-04-30T11:12:21;101757.00;;;21.40
44429;BMP180;30134;47.866;-4.222;2023-04-30T11:15:20;101753.00;;;21.30
44429;BMP180;30134;47.866;-4.222;2023-04-30T11:17:50;101749.00;;;21.30
44429;BMP180;30134;47.866;-4.222;2023-04-30T11:20:23;101747.00;;;21.30
44429;BMP180;30134;47.866;-4.222;2023-04-30T11:23:13;101753.00;;;21.40
44429;BMP180;30134;47.866;-4.222;2023-04-30T11:25:47;101749.00;;;21.40
44429;BMP180;30134;47.866;-4.222;2023-04-30T11:28:31;101745.00;;;21.40
44429;BMP180;30134;47.866;-4.222;2023-04-30T11:31:00;101740.00;;;21.40
44429;BMP180;30134;47.866;-4.222;2023-04-30T11:33:28;101736.00;;;21.30
44429;BMP180;30134;47.866;-4.222;2023-04-30T11:35:56;101736.00;;;21.40
44429;BMP180;30134;47.866;-4.222;2023-04-30T11:38:28;101737.00;;;21.40
44429;BMP180;30134;47.866;-4.222;2023-04-30T11:40:56;101734.00;;;21.60
44429;BMP180;30134;47.866;-4.222;2023-04-30T11:43:30;101735.00;;;22.00
44429;BMP180;30134;47.866;-4.222;2023-04-30T11:46:12;101733.00;;;22.40
44429;BMP180;30134;47.866;-4.222;2023-04-30T11:48:40;101727.00;;;22.50
44429;BMP180;30134;47.866;-4.222;2023-04-30T11:51:21;101733.00;;;22.60
44429;BMP180;30134;47.866;-4.222;2023-04-30T11:53:50;101730.00;;;22.70
44429;BMP180;30134;47.866;-4.222;2023-04-30T11:56:20;101732.00;;;22.80
44429;BMP180;30134;47.866;-4.222;2023-04-30T11:58:48;101732.00;;;22.90
44429;BMP180;30134;47.866;-4.222;2023-04-30T12:01:14;101730.00;;;22.90
44429;BMP180;30134;47.866;-4.222;2023-04-30T12:03:47;101731.00;;;23.00
44429;BMP180;30134;47.866;-4.222;2023-04-30T12:06:24;101726.00;;;23.10
44429;BMP180;30134;47.866;-4.222;2023-04-30T12:08:59;101728.00;;;23.10
44429;BMP180;30134;47.866;-4.222;2023-04-30T12:11:38;101726.00;;;23.10
44429;BMP180;30134;47.866;-4.222;2023-04-30T12:14:09;101735.00;;;23.20
44429;BMP180;30134;47.866;-4.222;2023-04-30T12:16:49;101733.00;;;23.20
44429;BMP180;30134;47.866;-4.222;2023-04-30T12:19:17;101731.00;;;23.30
44429;BMP180;30134;47.866;-4.222;2023-04-30T12:21:45;101731.00;;;23.40
44429;BMP180;30134;47.866;-4.222;2023-04-30T12:24:18;101721.00;;;23.40
44429;BMP180;30134;47.866;-4.222;2023-04-30T12:26:45;101730.00;;;23.50
44429;BMP180;30134;47.866;-4.222;2023-04-30T12:29:17;101728.00;;;23.50
44429;BMP180;30134;47.866;-4.222;2023-04-30T12:31:47;101722.00;;;23.50
44429;BMP180;30134;47.866;-4.222;2023-04-30T12:34:14;101734.00;;;23.60
44429;BMP180;30134;47.866;-4.222;2023-04-30T12:36:41;101734.00;;;23.60
44429;BMP180;30134;47.866;-4.222;2023-04-30T12:39:13;101730.00;;;23.60
44429;BMP180;30134;47.866;-4.222;2023-04-30T12:41:46;101719.00;;;23.70
44429;BMP180;30134;47.866;-4.222;2023-04-30T12:44:26;101720.00;;;23.70
44429;BMP180;30134;47.866;-4.222;2023-04-30T12:46:55;101728.00;;;23.80
44429;BMP180;30134;47.866;-4.222;2023-04-30T12:49:33;101725.00;;;23.80
44429;BMP180;30134;47.866;-4.222;2023-04-30T12:52:01;101723.00;;;23.90
44429;BMP180;30134;47.866;-4.222;2023-04-30T12:54:31;101723.00;;;23.90
44429;BMP180;30134;47.866;-4.222;2023-04-30T12:57:08;101722.00;;;23.90
44429;BMP180;30134;47.866;-4.222;2023-04-30T12:59:55;101725.00;;;24.00
44429;BMP180;30134;47.866;-4.222;2023-04-30T13:02:28;101723.00;;;24.00
44429;BMP180;30134;47.866;-4.222;2023-04-30T13:04:56;101729.00;;;24.00
44429;BMP180;30134;47.866;-4.222;2023-04-30T13:07:36;101731.00;;;24.00
44429;BMP180;30134;47.866;-4.222;2023-04-30T13:10:03;101738.00;;;24.00
44429;BMP180;30134;47.866;-4.222;2023-04-30T13:12:32;101736.00;;;24.10
44429;BMP180;30134;47.866;-4.222;2023-04-30T13:14:58;101739.00;;;24.20
44429;BMP180;30134;47.866;-4.222;2023-04-30T13:17:24;101742.00;;;24.20
44429;BMP180;30134;47.866;-4.222;2023-04-30T13:19:51;101738.00;;;24.20
44429;BMP180;30134;47.866;-4.222;2023-04-30T13:22:17;101738.00;;;24.20
44429;BMP180;30134;47.866;-4.222;2023-04-30T13:24:54;101755.00;;;24.30
44429;BMP180;30134;47.866;-4.222;2023-04-30T13:27:20;101748.00;;;24.20
44429;BMP180;30134;47.866;-4.222;2023-04-30T13:29:47;101746.00;;;24.30
44429;BMP180;30134;47.866;-4.222;2023-04-30T13:32:13;101746.00;;;24.30
44429;BMP180;30134;47.866;-4.222;2023-04-30T13:34:39;101741.00;;;24.40
44429;BMP180;30134;47.866;-4.222;2023-04-30T13:37:06;101741.00;;;24.30
44429;BMP180;30134;47.866;-4.222;2023-04-30T13:39:32;101745.00;;;24.40
44429;BMP180;30134;47.866;-4.222;2023-04-30T13:41:58;101739.00;;;24.40
44429;BMP180;30134;47.866;-4.222;2023-04-30T13:44:24;101739.00;;;24.40
44429;BMP180;30134;47.866;-4.222;2023-04-30T13:46:50;101734.00;;;24.50
44429;BMP180;30134;47.866;-4.222;2023-04-30T13:49:16;101736.00;;;24.50
44429;BMP180;30134;47.866;-4.222;2023-04-30T13:51:42;101731.00;;;24.50
44429;BMP180;30134;47.866;-4.222;2023-04-30T13:54:08;101735.00;;;24.50
44429;BMP180;30134;47.866;-4.222;2023-04-30T13:56:34;101741.00;;;24.60
44429;BMP180;30134;47.866;-4.222;2023-04-30T13:59:01;101737.00;;;24.60
44429;BMP180;30134;47.866;-4.222;2023-04-30T14:01:27;101740.00;;;24.60
44429;BMP180;30134;47.866;-4.222;2023-04-30T14:03:54;101738.00;;;24.60
44429;BMP180;30134;47.866;-4.222;2023-04-30T14:06:20;101741.00;;;24.60
44429;BMP180;30134;47.866;-4.222;2023-04-30T14:08:46;101746.00;;;24.60
44429;BMP180;30134;47.866;-4.222;2023-04-30T14:11:12;101740.00;;;24.50
44429;BMP180;30134;47.866;-4.222;2023-04-30T14:13:38;101741.00;;;24.50